createdAt,value
2024-02-26T00:02:05.801Z,7.32
2024-02-26T00:04:32.595Z,7.29
2024-02-26T00:06:59.589Z,7.26
2024-02-26T00:09:26.534Z,7.25
2024-02-26T00:11:53.350Z,7.23
2024-02-26T00:14:20.230Z,7.22
2024-02-26T00:16:47.068Z,7.18
2024-02-26T00:19:14.049Z,7.16
2024-02-26T00:21:43.981Z,7.15
2024-02-26T00:24:10.934Z,7.14
2024-02-26T00:26:37.848Z,7.13
2024-02-26T00:29:05.025Z,7.11
2024-02-26T00:31:32.026Z,7.11
2024-02-26T00:33:59.114Z,7.09
2024-02-26T00:36:26.183Z,7.09
2024-02-26T00:38:53.075Z,7.09
2024-02-26T00:41:21.454Z,7.10
2024-02-26T00:43:48.621Z,7.12
2024-02-26T00:46:15.431Z,7.13
2024-02-26T00:48:42.363Z,7.17
2024-02-26T00:51:09.693Z,7.19
2024-02-26T00:53:36.513Z,7.22
2024-02-26T00:56:03.440Z,7.22
2024-02-26T00:58:30.294Z,7.21
2024-02-26T01:00:57.163Z,7.20
2024-02-26T01:03:24.203Z,7.18
2024-02-26T01:05:51.984Z,7.18
2024-02-26T01:08:19.607Z,7.18
2024-02-26T01:10:46.542Z,7.17
2024-02-26T01:13:13.426Z,7.18
2024-02-26T01:15:40.230Z,7.18
2024-02-26T01:18:07.189Z,7.18
2024-02-26T01:20:34.199Z,7.18
2024-02-26T01:23:01.042Z,7.20
2024-02-26T01:25:28.698Z,7.21
2024-02-26T01:27:55.541Z,7.23
2024-02-26T01:30:22.486Z,7.23
2024-02-26T01:32:49.638Z,7.24
2024-02-26T01:35:16.552Z,7.25
2024-02-26T01:37:43.736Z,7.27
2024-02-26T01:40:11.441Z,7.29
2024-02-26T01:42:42.508Z,7.30
2024-02-26T01:45:22.089Z,7.30
2024-02-26T01:47:52.528Z,7.28
2024-02-26T01:50:23.760Z,7.28
2024-02-26T01:52:51.616Z,7.28
2024-02-26T01:55:23.856Z,7.27
2024-02-26T01:57:53.112Z,7.27
2024-02-26T02:00:21.366Z,7.27
2024-02-26T02:02:49.659Z,7.24
2024-02-26T02:05:22.095Z,7.22
2024-02-26T02:07:49.967Z,7.19
2024-02-26T02:10:19.272Z,7.17
2024-02-26T02:12:46.167Z,7.13
2024-02-26T02:15:13.046Z,7.12
2024-02-26T02:17:40.026Z,7.11
2024-02-26T02:20:15.893Z,7.10
2024-02-26T02:22:42.726Z,7.08
2024-02-26T02:25:09.676Z,7.08
2024-02-26T02:27:36.515Z,7.09
2024-02-26T02:30:04.888Z,7.10
2024-02-26T02:32:32.270Z,7.08
2024-02-26T02:34:59.497Z,7.08
2024-02-26T02:37:26.469Z,7.08
2024-02-26T02:39:55.442Z,7.07
2024-02-26T02:42:22.456Z,7.06
2024-02-26T02:44:49.350Z,7.06
2024-02-26T02:47:16.249Z,7.04
2024-02-26T02:49:43.129Z,7.05
2024-02-26T02:52:09.932Z,7.04
2024-02-26T02:54:38.045Z,7.03
2024-02-26T02:57:05.014Z,7.01
2024-02-26T02:59:31.840Z,7.01
2024-02-26T03:01:58.665Z,7.01
2024-02-26T03:04:25.615Z,7.02
2024-02-26T03:06:52.712Z,7.00
2024-02-26T03:09:19.681Z,7.01
2024-02-26T03:11:46.563Z,7.01
2024-02-26T03:14:13.404Z,7.00
2024-02-26T03:16:40.205Z,7.00
2024-02-26T03:19:07.240Z,6.99
2024-02-26T03:21:34.124Z,6.99
2024-02-26T03:24:00.951Z,6.97
2024-02-26T03:26:27.752Z,6.97
2024-02-26T03:28:54.558Z,6.94
2024-02-26T03:31:22.662Z,6.92
2024-02-26T03:33:49.907Z,6.91
2024-02-26T03:36:16.853Z,6.90
2024-02-26T03:38:44.045Z,6.86
2024-02-26T03:41:10.857Z,6.86
2024-02-26T03:43:37.661Z,6.84
2024-02-26T03:46:04.560Z,6.81
2024-02-26T03:48:31.529Z,6.82
2024-02-26T03:50:58.432Z,6.80
2024-02-26T03:53:25.309Z,6.78
2024-02-26T03:55:53.099Z,6.78
2024-02-26T03:58:20.036Z,6.76
2024-02-26T04:00:48.721Z,6.74
2024-02-26T04:03:15.863Z,6.74
2024-02-26T04:05:42.791Z,6.71
2024-02-26T04:08:09.662Z,6.72
2024-02-26T04:10:36.659Z,6.71
2024-02-26T04:13:04.773Z,6.70
2024-02-26T04:15:31.605Z,6.70
2024-02-26T04:17:58.615Z,6.70
2024-02-26T04:20:25.711Z,6.69
2024-02-26T04:22:52.640Z,6.69
2024-02-26T04:25:19.473Z,6.68
2024-02-26T04:27:46.253Z,6.69
2024-02-26T04:30:13.293Z,6.69
2024-02-26T04:32:40.239Z,6.68
2024-02-26T04:35:07.477Z,6.68
2024-02-26T04:37:34.345Z,6.68
2024-02-26T04:40:02.032Z,6.69
2024-02-26T04:42:29.152Z,6.69
2024-02-26T04:44:56.556Z,6.69
2024-02-26T04:47:23.842Z,6.72
2024-02-26T04:49:51.775Z,6.71
2024-02-26T04:52:19.797Z,6.73
2024-02-26T04:54:46.628Z,6.75
2024-02-26T04:57:13.550Z,6.75
2024-02-26T04:59:41.927Z,6.77
2024-02-26T05:02:09.016Z,6.78
2024-02-26T05:04:35.945Z,6.78
2024-02-26T05:07:02.921Z,6.78
2024-02-26T05:09:29.864Z,6.80
2024-02-26T05:11:56.735Z,6.81
2024-02-26T05:14:23.605Z,6.80
2024-02-26T05:16:50.452Z,6.82
2024-02-26T05:19:17.584Z,6.81
2024-02-26T05:21:45.246Z,6.82
2024-02-26T05:24:12.176Z,6.83
2024-02-26T05:26:39.079Z,6.84
2024-02-26T05:29:05.901Z,6.84
2024-02-26T05:31:32.728Z,6.84
2024-02-26T05:33:59.646Z,6.85
2024-02-26T05:36:27.075Z,6.87
2024-02-26T05:38:54.073Z,6.84
2024-02-26T05:41:24.266Z,6.86
2024-02-26T05:43:51.597Z,6.87
2024-02-26T05:46:22.012Z,6.88
2024-02-26T05:48:51.182Z,6.89
2024-02-26T05:51:18.142Z,6.89
2024-02-26T05:53:45.509Z,6.92
2024-02-26T05:56:12.350Z,6.93
2024-02-26T05:58:39.146Z,6.96
2024-02-26T06:01:05.962Z,6.97
2024-02-26T06:03:33.744Z,7.00
2024-02-26T06:06:00.754Z,7.00
2024-02-26T06:08:27.631Z,7.03
2024-02-26T06:10:54.468Z,7.05
2024-02-26T06:13:21.796Z,7.08
2024-02-26T06:15:48.641Z,7.09
2024-02-26T06:18:15.490Z,7.11
2024-02-26T06:20:42.384Z,7.13
2024-02-26T06:23:09.191Z,7.14
2024-02-26T06:25:36.023Z,7.16
2024-02-26T06:28:02.924Z,7.18
2024-02-26T06:30:29.850Z,7.20
2024-02-26T06:32:56.834Z,7.22
2024-02-26T06:35:23.809Z,7.24
2024-02-26T06:37:53.575Z,7.26
2024-02-26T06:40:20.888Z,7.28
2024-02-26T06:42:49.743Z,7.30
2024-02-26T06:45:17.109Z,7.31
2024-02-26T06:47:44.024Z,7.32
2024-02-26T06:50:13.275Z,7.33
2024-02-26T06:52:40.334Z,7.36
2024-02-26T06:55:09.365Z,7.37
2024-02-26T06:57:36.215Z,7.36
2024-02-26T07:00:05.023Z,7.39
2024-02-26T07:02:32.484Z,7.41
2024-02-26T07:04:59.474Z,7.42
2024-02-26T07:07:26.891Z,7.43
2024-02-26T07:09:53.887Z,7.46
2024-02-26T07:12:22.410Z,7.48
2024-02-26T07:14:51.061Z,7.51
2024-02-26T07:17:18.244Z,7.53
2024-02-26T07:19:45.147Z,7.54
2024-02-26T07:22:12.315Z,7.57
2024-02-26T07:24:39.170Z,7.59
2024-02-26T07:27:06.260Z,7.62
2024-02-26T07:29:33.144Z,7.66
2024-02-26T07:31:59.980Z,7.70
2024-02-26T07:34:30.276Z,7.74
2024-02-26T07:36:58.071Z,7.77
2024-02-26T07:39:25.093Z,7.80
2024-02-26T07:41:54.051Z,7.85
2024-02-26T07:44:21.471Z,7.89
2024-02-26T07:46:48.341Z,7.94
2024-02-26T07:49:15.485Z,7.97
2024-02-26T07:51:42.653Z,8.04
2024-02-26T07:54:09.699Z,8.10
2024-02-26T07:56:36.613Z,8.16
2024-02-26T07:59:03.585Z,8.21
2024-02-26T08:01:30.475Z,8.25
2024-02-26T08:03:57.546Z,8.30
2024-02-26T08:06:25.922Z,8.33
2024-02-26T08:08:53.221Z,8.38
2024-02-26T08:11:20.137Z,8.40
2024-02-26T08:13:46.940Z,8.44
2024-02-26T08:16:13.743Z,8.48
2024-02-26T08:18:41.139Z,8.53
2024-02-26T08:21:09.702Z,8.59
2024-02-26T08:23:36.621Z,8.64
2024-02-26T08:26:05.350Z,8.69
2024-02-26T08:28:32.207Z,8.73
2024-02-26T08:30:59.522Z,8.79
2024-02-26T08:33:26.503Z,8.84
2024-02-26T08:35:53.426Z,8.88
2024-02-26T08:38:20.241Z,8.91
2024-02-26T08:40:47.056Z,8.97
2024-02-26T08:43:13.924Z,9.02
2024-02-26T08:45:41.019Z,9.06
2024-02-26T08:48:08.822Z,9.10
2024-02-26T08:50:36.096Z,9.14
2024-02-26T08:53:07.475Z,9.18
2024-02-26T08:55:34.844Z,9.24
2024-02-26T08:58:01.659Z,9.28
2024-02-26T09:00:32.172Z,9.32
2024-02-26T09:03:00.721Z,9.36
2024-02-26T09:05:28.832Z,9.41
2024-02-26T09:07:56.148Z,9.47
2024-02-26T09:10:23.433Z,9.53
2024-02-26T09:12:50.351Z,9.58
2024-02-26T09:15:17.309Z,9.64
2024-02-26T09:17:47.265Z,9.67
2024-02-26T09:20:16.013Z,9.69
2024-02-26T09:22:43.687Z,9.74
2024-02-26T09:25:10.509Z,9.78
2024-02-26T09:27:40.009Z,9.79
2024-02-26T09:30:09.123Z,9.81
2024-02-26T09:32:41.834Z,9.85
2024-02-26T09:35:08.812Z,9.90
2024-02-26T09:37:37.733Z,9.95
2024-02-26T09:40:07.340Z,9.98
2024-02-26T09:42:36.502Z,10.02
2024-02-26T09:45:09.610Z,10.06
2024-02-26T09:47:37.521Z,10.07
2024-02-26T09:50:08.614Z,10.10
2024-02-26T09:52:38.882Z,10.12
2024-02-26T09:55:06.942Z,10.13
2024-02-26T09:57:34.002Z,10.14
2024-02-26T10:00:06.409Z,10.14
2024-02-26T10:02:34.674Z,10.13
2024-02-26T10:05:07.467Z,10.17
2024-02-26T10:07:36.005Z,10.20
2024-02-26T10:10:03.287Z,10.24
2024-02-26T10:12:32.296Z,10.27
2024-02-26T10:14:59.223Z,10.32
2024-02-26T10:17:26.451Z,10.35
2024-02-26T10:19:57.568Z,10.39
2024-02-26T10:22:24.584Z,10.40
2024-02-26T10:24:51.499Z,10.41
2024-02-26T10:27:19.841Z,10.45
2024-02-26T10:29:48.267Z,10.47
2024-02-26T10:32:15.204Z,10.50
2024-02-26T10:34:42.816Z,10.55
2024-02-26T10:37:11.187Z,10.59
2024-02-26T10:39:39.097Z,10.60
2024-02-26T10:42:10.844Z,10.65
2024-02-26T10:44:37.883Z,10.71
2024-02-26T10:47:05.017Z,10.80
2024-02-26T10:49:32.011Z,10.86
2024-02-26T10:51:59.865Z,10.93
2024-02-26T10:54:31.471Z,11.02
2024-02-26T10:57:00.230Z,11.08
2024-02-26T10:59:27.951Z,11.17
2024-02-26T11:01:56.664Z,11.21
2024-02-26T11:04:24.157Z,11.28
2024-02-26T11:06:51.620Z,11.33
2024-02-26T11:09:20.713Z,11.37
2024-02-26T11:11:48.809Z,11.42
2024-02-26T11:14:18.235Z,11.44
2024-02-26T11:16:45.946Z,11.46
2024-02-26T11:19:15.062Z,11.46
2024-02-26T11:21:54.260Z,11.47
2024-02-26T11:24:21.146Z,11.45
2024-02-26T11:27:02.388Z,11.47
2024-02-26T11:29:39.195Z,11.46
2024-02-26T11:32:08.022Z,11.44
2024-02-26T11:34:35.417Z,11.45
2024-02-26T11:37:18.593Z,11.49
2024-02-26T11:39:47.060Z,11.50
2024-02-26T11:42:17.785Z,11.55
2024-02-26T11:44:45.737Z,11.56
2024-02-26T11:47:14.880Z,11.60
2024-02-26T11:49:41.886Z,11.62
2024-02-26T11:52:10.800Z,11.66
2024-02-26T11:54:53.475Z,11.68
2024-02-26T11:57:30.867Z,11.70
2024-02-26T12:00:14.480Z,11.76
2024-02-26T12:02:44.307Z,11.77
2024-02-26T12:05:18.451Z,11.80
2024-02-26T12:07:50.948Z,11.78
2024-02-26T12:10:35.169Z,11.80
2024-02-26T12:13:16.780Z,11.85
2024-02-26T12:15:57.105Z,11.91
2024-02-26T12:18:24.644Z,11.94
2024-02-26T12:21:05.775Z,12.00
2024-02-26T12:23:33.174Z,12.06
2024-02-26T12:26:05.860Z,12.12
2024-02-26T12:28:34.801Z,12.17
2024-02-26T12:31:02.124Z,12.22
2024-02-26T12:33:31.980Z,12.29
2024-02-26T12:35:59.483Z,12.33
2024-02-26T12:38:27.810Z,12.39
2024-02-26T12:40:55.097Z,12.43
2024-02-26T12:43:21.978Z,12.46
2024-02-26T12:45:49.221Z,12.51
2024-02-26T12:48:16.448Z,12.59
2024-02-26T12:50:50.591Z,12.62
2024-02-26T12:53:17.627Z,12.66
2024-02-26T12:55:44.734Z,12.70
2024-02-26T12:58:12.906Z,12.74
2024-02-26T13:00:40.383Z,12.79
2024-02-26T13:03:07.493Z,12.86
2024-02-26T13:05:35.143Z,12.92
2024-02-26T13:08:04.759Z,12.98
2024-02-26T13:10:32.955Z,13.05
2024-02-26T13:13:03.777Z,13.10
2024-02-26T13:15:30.762Z,13.12
2024-02-26T13:17:59.312Z,13.17
2024-02-26T13:20:33.089Z,13.19
2024-02-26T13:23:08.802Z,13.22
2024-02-26T13:25:37.110Z,13.24
2024-02-26T13:28:14.989Z,13.27
2024-02-26T13:30:41.953Z,13.24
2024-02-26T13:33:13.884Z,13.21
2024-02-26T13:35:41.389Z,13.16
2024-02-26T13:38:08.391Z,13.14
2024-02-26T13:40:36.048Z,13.13
2024-02-26T13:43:03.181Z,13.09
2024-02-26T13:45:32.546Z,13.06
2024-02-26T13:48:06.325Z,13.03
2024-02-26T13:50:33.323Z,13.00
2024-02-26T13:53:00.528Z,12.97
2024-02-26T13:55:29.235Z,12.95
2024-02-26T13:57:57.880Z,12.93
2024-02-26T14:00:25.942Z,12.90
2024-02-26T14:02:52.885Z,12.85
2024-02-26T14:05:19.854Z,12.83
2024-02-26T14:07:49.831Z,12.80
2024-02-26T14:10:18.220Z,12.78
2024-02-26T14:12:45.061Z,12.78
2024-02-26T14:15:12.205Z,12.77
2024-02-26T14:17:39.281Z,12.76
2024-02-26T14:20:08.858Z,12.75
2024-02-26T14:22:35.828Z,12.75
2024-02-26T14:25:02.766Z,12.74
2024-02-26T14:27:29.737Z,12.74
2024-02-26T14:29:56.731Z,12.73
2024-02-26T14:32:23.585Z,12.72
2024-02-26T14:34:50.729Z,12.70
2024-02-26T14:37:17.661Z,12.69
2024-02-26T14:39:44.513Z,12.69
2024-02-26T14:42:11.393Z,12.68
2024-02-26T14:44:38.265Z,12.67
2024-02-26T14:47:05.250Z,12.65
2024-02-26T14:49:32.915Z,12.66
2024-02-26T14:51:59.971Z,12.65
2024-02-26T14:54:27.164Z,12.64
2024-02-26T14:56:54.094Z,12.63
2024-02-26T14:59:20.925Z,12.64
2024-02-26T15:01:48.462Z,12.64
2024-02-26T15:04:15.581Z,12.65
2024-02-26T15:06:42.838Z,12.66
2024-02-26T15:09:10.578Z,12.66
2024-02-26T15:11:40.847Z,12.66
2024-02-26T15:14:11.797Z,12.66
2024-02-26T15:16:38.737Z,12.65
2024-02-26T15:19:07.283Z,12.64
2024-02-26T15:21:46.902Z,12.64
2024-02-26T15:24:14.014Z,12.65
2024-02-26T15:26:41.421Z,12.65
2024-02-26T15:29:09.901Z,12.66
2024-02-26T15:31:37.684Z,12.67
2024-02-26T15:34:05.377Z,12.67
2024-02-26T15:36:32.538Z,12.71
2024-02-26T15:38:59.459Z,12.73
2024-02-26T15:41:28.359Z,12.73
2024-02-26T15:43:55.210Z,12.74
2024-02-26T15:46:22.074Z,12.74
2024-02-26T15:48:50.402Z,12.71
2024-02-26T15:51:27.341Z,12.71
2024-02-26T15:53:55.104Z,12.68
2024-02-26T15:56:25.854Z,12.67
2024-02-26T15:58:53.861Z,12.66
2024-02-26T16:01:24.611Z,12.63
2024-02-26T16:03:55.574Z,12.62
2024-02-26T16:06:34.454Z,12.61
2024-02-26T16:09:01.467Z,12.59
2024-02-26T16:11:28.461Z,12.56
2024-02-26T16:14:26.002Z,12.55
2024-02-26T16:17:17.310Z,12.51
2024-02-26T16:19:44.315Z,12.48
2024-02-26T16:22:11.165Z,12.48
2024-02-26T16:24:38.134Z,12.46
2024-02-26T16:27:05.232Z,12.47
2024-02-26T16:29:32.145Z,12.45
2024-02-26T16:31:59.063Z,12.44
2024-02-26T16:34:26.026Z,12.44
2024-02-26T16:36:52.930Z,12.43
2024-02-26T16:39:19.922Z,12.43
2024-02-26T16:41:46.792Z,12.41
2024-02-26T16:44:14.300Z,12.42
2024-02-26T16:46:41.197Z,12.43
2024-02-26T16:49:09.003Z,12.41
2024-02-26T16:51:39.930Z,12.42
2024-02-26T16:54:06.920Z,12.42
2024-02-26T16:56:33.940Z,12.41
2024-02-26T16:59:00.791Z,12.40
2024-02-26T17:01:27.637Z,12.40
2024-02-26T17:03:54.745Z,12.40
2024-02-26T17:06:24.804Z,12.39
2024-02-26T17:08:53.761Z,12.41
2024-02-26T17:11:20.935Z,12.40
2024-02-26T17:13:47.894Z,12.39
2024-02-26T17:16:14.753Z,12.38
2024-02-26T17:18:41.804Z,12.37
2024-02-26T17:21:09.661Z,12.37
2024-02-26T17:23:36.668Z,12.36
2024-02-26T17:26:04.884Z,12.36
2024-02-26T17:28:31.738Z,12.36
2024-02-26T17:31:02.838Z,12.36
2024-02-26T17:33:29.845Z,12.35
2024-02-26T17:35:56.859Z,12.35
2024-02-26T17:38:28.556Z,12.35
2024-02-26T17:40:58.441Z,12.34
2024-02-26T17:43:26.032Z,12.34
2024-02-26T17:45:56.058Z,12.33
2024-02-26T17:48:23.174Z,12.33
2024-02-26T17:50:52.727Z,12.32
2024-02-26T17:53:23.247Z,12.31
2024-02-26T17:55:50.950Z,12.30
2024-02-26T17:58:19.824Z,12.28
2024-02-26T18:00:47.628Z,12.28
2024-02-26T18:03:15.769Z,12.27
2024-02-26T18:05:43.083Z,12.24
2024-02-26T18:08:15.309Z,12.23
2024-02-26T18:10:42.133Z,12.20
2024-02-26T18:13:09.632Z,12.18
2024-02-26T18:15:36.535Z,12.15
2024-02-26T18:18:03.753Z,12.13
2024-02-26T18:20:30.745Z,12.10
2024-02-26T18:22:57.586Z,12.07
2024-02-26T18:25:25.985Z,12.06
2024-02-26T18:27:53.044Z,12.05
2024-02-26T18:30:20.073Z,12.02
2024-02-26T18:32:48.629Z,12.00
2024-02-26T18:35:17.241Z,11.97
2024-02-26T18:37:44.070Z,11.94
2024-02-26T18:40:11.316Z,11.93
2024-02-26T18:42:42.902Z,11.92
2024-02-26T18:45:11.918Z,11.90
2024-02-26T18:47:41.921Z,11.87
2024-02-26T18:50:12.117Z,11.88
2024-02-26T18:52:40.577Z,11.87
2024-02-26T18:55:08.017Z,11.87
2024-02-26T18:57:35.724Z,11.85
2024-02-26T19:00:05.459Z,11.84
2024-02-26T19:02:32.335Z,11.82
2024-02-26T19:04:59.291Z,11.82
2024-02-26T19:07:26.142Z,11.81
2024-02-26T19:09:54.775Z,11.80
2024-02-26T19:12:23.169Z,11.80
2024-02-26T19:14:50.204Z,11.80
2024-02-26T19:17:17.794Z,11.78
2024-02-26T19:19:44.961Z,11.77
2024-02-26T19:22:13.376Z,11.76
2024-02-26T19:24:41.193Z,11.76
2024-02-26T19:27:08.083Z,11.75
2024-02-26T19:29:36.237Z,11.74
2024-02-26T19:32:04.316Z,11.74
2024-02-26T19:34:31.244Z,11.72
2024-02-26T19:36:58.158Z,11.69
2024-02-26T19:39:25.078Z,11.65
2024-02-26T19:41:51.986Z,11.64
2024-02-26T19:44:19.153Z,11.63
2024-02-26T19:46:46.017Z,11.63
2024-02-26T19:49:15.135Z,11.62
2024-02-26T19:51:43.484Z,11.60
2024-02-26T19:54:10.402Z,11.59
2024-02-26T19:56:37.311Z,11.57
2024-02-26T19:59:05.140Z,11.56
2024-02-26T20:01:33.469Z,11.56
2024-02-26T20:04:00.388Z,11.53
2024-02-26T20:06:27.400Z,11.55
2024-02-26T20:08:54.270Z,11.54
2024-02-26T20:11:21.267Z,11.51
2024-02-26T20:13:48.185Z,11.51
2024-02-26T20:16:15.039Z,11.49
2024-02-26T20:18:42.007Z,11.47
2024-02-26T20:21:08.919Z,11.46
2024-02-26T20:23:35.798Z,11.45
2024-02-26T20:26:02.759Z,11.43
2024-02-26T20:28:36.924Z,11.42
2024-02-26T20:31:05.334Z,11.35
2024-02-26T20:33:33.999Z,11.35
2024-02-26T20:36:09.469Z,11.34
2024-02-26T20:38:36.323Z,11.34
2024-02-26T20:41:03.121Z,11.31
2024-02-26T20:43:31.193Z,11.29
2024-02-26T20:46:00.666Z,11.27
2024-02-26T20:48:27.883Z,11.24
2024-02-26T20:50:54.914Z,11.21
2024-02-26T20:53:21.732Z,11.21
2024-02-26T20:55:53.639Z,11.19
2024-02-26T20:58:20.470Z,11.17
2024-02-26T21:00:47.940Z,11.15
2024-02-26T21:03:14.867Z,11.14
2024-02-26T21:05:42.644Z,11.12
2024-02-26T21:08:16.909Z,11.10
2024-02-26T21:10:52.096Z,11.07
2024-02-26T21:13:19.171Z,11.05
2024-02-26T21:15:47.793Z,11.02
2024-02-26T21:18:14.847Z,11.00
2024-02-26T21:20:41.777Z,10.96
2024-02-26T21:23:10.953Z,10.94
2024-02-26T21:25:37.743Z,10.93
2024-02-26T21:28:06.450Z,10.88
2024-02-26T21:30:33.643Z,10.87
2024-02-26T21:33:00.665Z,10.85
2024-02-26T21:35:27.564Z,10.84
2024-02-26T21:37:57.429Z,10.81
2024-02-26T21:40:26.829Z,10.80
2024-02-26T21:42:53.749Z,10.76
2024-02-26T21:45:21.924Z,10.75
2024-02-26T21:47:49.300Z,10.73
2024-02-26T21:50:17.184Z,10.71
2024-02-26T21:52:46.894Z,10.69
2024-02-26T21:55:13.831Z,10.67
2024-02-26T21:57:40.886Z,10.66
2024-02-26T22:00:08.670Z,10.64
2024-02-26T22:02:35.631Z,10.62
2024-02-26T22:05:03.430Z,10.60
2024-02-26T22:07:30.268Z,10.61
2024-02-26T22:09:57.117Z,10.61
2024-02-26T22:12:24.071Z,10.59
2024-02-26T22:14:50.918Z,10.59
2024-02-26T22:17:17.781Z,10.59
2024-02-26T22:19:44.661Z,10.58
2024-02-26T22:22:11.672Z,10.57
2024-02-26T22:24:38.567Z,10.56
2024-02-26T22:27:05.698Z,10.55
2024-02-26T22:29:32.515Z,10.54
2024-02-26T22:32:01.149Z,10.52
2024-02-26T22:34:29.042Z,10.51
2024-02-26T22:36:56.081Z,10.51
2024-02-26T22:39:23.286Z,10.52
2024-02-26T22:41:50.422Z,10.49
2024-02-26T22:44:17.609Z,10.49
2024-02-26T22:46:44.631Z,10.47
2024-02-26T22:49:11.678Z,10.46
2024-02-26T22:51:38.814Z,10.45
2024-02-26T22:54:05.860Z,10.42
2024-02-26T22:56:32.719Z,10.41
2024-02-26T22:58:59.527Z,10.40
2024-02-26T23:01:26.458Z,10.40
2024-02-26T23:03:53.483Z,10.38
2024-02-26T23:06:20.428Z,10.37
2024-02-26T23:08:47.616Z,10.35
2024-02-26T23:11:14.686Z,10.33
2024-02-26T23:13:42.979Z,10.30
2024-02-26T23:16:10.296Z,10.28
2024-02-26T23:18:38.128Z,10.25
2024-02-26T23:21:06.637Z,10.22
2024-02-26T23:23:33.479Z,10.21
2024-02-26T23:26:00.330Z,10.18
2024-02-26T23:28:27.137Z,10.19
2024-02-26T23:30:53.962Z,10.16
2024-02-26T23:33:20.808Z,10.16
2024-02-26T23:35:47.674Z,10.13
2024-02-26T23:38:14.510Z,10.11
2024-02-26T23:40:41.345Z,10.08
2024-02-26T23:43:08.189Z,10.07
2024-02-26T23:45:35.076Z,10.05
2024-02-26T23:48:02.030Z,10.05
2024-02-26T23:50:30.049Z,10.03
2024-02-26T23:52:56.950Z,9.99
2024-02-26T23:55:23.839Z,9.98
2024-02-26T23:57:50.638Z,9.96
